sensor_id;sensor_type;location;lat;lon;timestamp;pressure;altitude;pressure_sealevel;temperature;humidity
19150;BME280;9707;49.158;8.632;2023-06-01T00:02:09;100575.53;;;26.32;29.62
19150;BME280;9707;49.158;8.632;2023-06-01T00:04:35;100566.63;;;26.30;30.13
19150;BME280;9707;49.158;8.632;2023-06-01T00:07:08;100568.66;;;26.28;29.93
19150;BME280;9707;49.158;8.632;2023-06-01T00:09:35;100571.69;;;26.25;29.91
19150;BME280;9707;49.158;8.632;2023-06-01T00:12:01;100569.13;;;26.23;29.99
19150;BME280;9707;49.158;8.632;2023-06-01T00:14:26;100568.44;;;26.21;29.72
19150;BME280;9707;49.158;8.632;2023-06-01T00:16:51;100571.31;;;26.20;29.99
19150;BME280;9707;49.158;8.632;2023-06-01T00:19:17;100559.84;;;26.16;30.16
19150;BME280;9707;49.158;8.632;2023-06-01T00:21:43;100557.25;;;26.15;29.97
19150;BME280;9707;49.158;8.632;2023-06-01T00:24:08;100556.53;;;26.13;29.84
19150;BME280;9707;49.158;8.632;2023-06-01T00:26:34;100559.25;;;26.13;30.36
19150;BME280;9707;49.158;8.632;2023-06-01T00:29:00;100561.31;;;26.11;30.30
19150;BME280;9707;49.158;8.632;2023-06-01T00:31:25;100553.25;;;26.09;30.10
19150;BME280;9707;49.158;8.632;2023-06-01T00:33:51;100555.28;;;26.07;30.31
19150;BME280;9707;49.158;8.632;2023-06-01T00:36:17;100551.84;;;26.05;30.37
19150;BME280;9707;49.158;8.632;2023-06-01T00:38:42;100551.84;;;26.05;30.56
19150;BME280;9707;49.158;8.632;2023-06-01T00:41:08;100554.75;;;26.04;30.15
19150;BME280;9707;49.158;8.632;2023-06-01T00:43:33;100549.59;;;26.01;30.25
19150;BME280;9707;49.158;8.632;2023-06-01T00:45:58;100550.59;;;26.00;30.14
19150;BME280;9707;49.158;8.632;2023-06-01T00:48:24;100549.88;;;25.98;30.23
19150;BME280;9707;49.158;8.632;2023-06-01T00:50:50;100541.00;;;25.96;29.99
19150;BME280;9707;49.158;8.632;2023-06-01T00:53:18;100539.44;;;25.93;30.13
19150;BME280;9707;49.158;8.632;2023-06-01T00:55:44;100545.91;;;25.92;30.08
19150;BME280;9707;49.158;8.632;2023-06-01T00:58:09;100536.13;;;25.90;30.00
19150;BME280;9707;49.158;8.632;2023-06-01T01:00:35;100540.72;;;25.89;30.04
19150;BME280;9707;49.158;8.632;2023-06-01T01:03:03;100540.84;;;25.88;30.08
19150;BME280;9707;49.158;8.632;2023-06-01T01:05:32;100545.63;;;25.86;29.96
19150;BME280;9707;49.158;8.632;2023-06-01T01:08:07;100543.91;;;25.85;29.74
19150;BME280;9707;49.158;8.632;2023-06-01T01:10:39;100542.19;;;25.84;30.08
19150;BME280;9707;49.158;8.632;2023-06-01T01:16:06;100542.63;;;25.79;30.12
19150;BME280;9707;49.158;8.632;2023-06-01T01:18:42;100546.53;;;25.77;29.83
19150;BME280;9707;49.158;8.632;2023-06-01T01:21:11;100545.84;;;25.75;30.15
19150;BME280;9707;49.158;8.632;2023-06-01T01:29:42;100545.72;;;25.67;30.23
19150;BME280;9707;49.158;8.632;2023-06-01T01:32:08;100544.88;;;25.66;30.23
19150;BME280;9707;49.158;8.632;2023-06-01T01:34:34;100547.59;;;25.66;30.45
19150;BME280;9707;49.158;8.632;2023-06-01T01:37:00;100551.50;;;25.64;30.44
19150;BME280;9707;49.158;8.632;2023-06-01T01:39:25;100548.78;;;25.64;30.25
19150;BME280;9707;49.158;8.632;2023-06-01T01:41:51;100552.34;;;25.64;30.32
19150;BME280;9707;49.158;8.632;2023-06-01T01:44:17;100554.91;;;25.66;30.28
19150;BME280;9707;49.158;8.632;2023-06-01T01:46:51;100551.50;;;25.64;30.44
19150;BME280;9707;49.158;8.632;2023-06-01T01:49:30;100548.91;;;25.62;30.29
19150;BME280;9707;49.158;8.632;2023-06-01T01:54:47;100553.81;;;25.59;30.21
19150;BME280;9707;49.158;8.632;2023-06-01T01:57:15;100550.34;;;25.57;30.69
19150;BME280;9707;49.158;8.632;2023-06-01T01:59:45;100555.81;;;25.57;30.59
19150;BME280;9707;49.158;8.632;2023-06-01T02:02:11;100554.97;;;25.56;30.03
19150;BME280;9707;49.158;8.632;2023-06-01T02:04:40;100548.66;;;25.56;30.51
19150;BME280;9707;49.158;8.632;2023-06-01T02:07:06;100544.91;;;25.57;30.53
19150;BME280;9707;49.158;8.632;2023-06-01T02:09:32;100546.94;;;25.55;30.50
19150;BME280;9707;49.158;8.632;2023-06-01T02:11:57;100544.22;;;25.55;30.34
19150;BME280;9707;49.158;8.632;2023-06-01T02:14:22;100550.69;;;25.54;30.40
19150;BME280;9707;49.158;8.632;2023-06-01T02:16:47;100546.25;;;25.53;30.66
19150;BME280;9707;49.158;8.632;2023-06-01T02:19:13;100548.09;;;25.52;30.55
19150;BME280;9707;49.158;8.632;2023-06-01T02:21:41;100547.41;;;25.50;30.41
19150;BME280;9707;49.158;8.632;2023-06-01T02:24:07;100552.84;;;25.50;30.34
19150;BME280;9707;49.158;8.632;2023-06-01T02:26:34;100555.72;;;25.49;30.34
19150;BME280;9707;49.158;8.632;2023-06-01T02:28:59;100554.00;;;25.48;30.63
19150;BME280;9707;49.158;8.632;2023-06-01T02:31:24;100551.56;;;25.45;30.60
19150;BME280;9707;49.158;8.632;2023-06-01T02:33:50;100553.59;;;25.43;30.37
19150;BME280;9707;49.158;8.632;2023-06-01T02:36:15;100551.03;;;25.41;30.45
19150;BME280;9707;49.158;8.632;2023-06-01T02:38:41;100549.13;;;25.42;30.66
19150;BME280;9707;49.158;8.632;2023-06-01T02:41:07;100553.88;;;25.40;30.57
19150;BME280;9707;49.158;8.632;2023-06-01T02:43:34;100558.66;;;25.38;30.53
19150;BME280;9707;49.158;8.632;2023-06-01T02:46:02;100553.19;;;25.38;30.53
19150;BME280;9707;49.158;8.632;2023-06-01T02:48:28;100557.91;;;25.36;30.74
19150;BME280;9707;49.158;8.632;2023-06-01T02:50:53;100561.66;;;25.35;30.60
19150;BME280;9707;49.158;8.632;2023-06-01T02:53:19;100546.44;;;25.32;30.69
19150;BME280;9707;49.158;8.632;2023-06-01T02:55:44;100551.03;;;25.32;30.81
19150;BME280;9707;49.158;8.632;2023-06-01T02:58:09;100550.19;;;25.31;30.86
19150;BME280;9707;49.158;8.632;2023-06-01T03:00:41;100556.81;;;25.29;30.98
19150;BME280;9707;49.158;8.632;2023-06-01T03:03:06;100551.63;;;25.26;30.80
19150;BME280;9707;49.158;8.632;2023-06-01T03:05:32;100560.78;;;25.25;30.87
19150;BME280;9707;49.158;8.632;2023-06-01T03:07:58;100561.06;;;25.22;30.83
19150;BME280;9707;49.158;8.632;2023-06-01T03:10:23;100557.66;;;25.20;31.04
19150;BME280;9707;49.158;8.632;2023-06-01T03:12:49;100550.50;;;25.19;30.69
19150;BME280;9707;49.158;8.632;2023-06-01T03:15:14;100548.78;;;25.18;30.73
19150;BME280;9707;49.158;8.632;2023-06-01T03:17:40;100551.50;;;25.18;30.79
19150;BME280;9707;49.158;8.632;2023-06-01T03:20:06;100549.94;;;25.15;30.65
19150;BME280;9707;49.158;8.632;2023-06-01T03:22:40;100548.19;;;25.14;30.69
19150;BME280;9707;49.158;8.632;2023-06-01T03:25:06;100547.50;;;25.12;31.00
19150;BME280;9707;49.158;8.632;2023-06-01T03:27:32;100547.63;;;25.11;30.82
19150;BME280;9707;49.158;8.632;2023-06-01T03:29:57;100558.69;;;25.09;30.70
19150;BME280;9707;49.158;8.632;2023-06-01T03:32:23;100555.25;;;25.07;30.92
19150;BME280;9707;49.158;8.632;2023-06-01T03:34:48;100556.25;;;25.06;30.76
19150;BME280;9707;49.158;8.632;2023-06-01T03:37:13;100557.41;;;25.04;30.79
19150;BME280;9707;49.158;8.632;2023-06-01T03:39:38;100554.97;;;25.01;30.97
19150;BME280;9707;49.158;8.632;2023-06-01T03:42:04;100559.72;;;24.99;30.99
19150;BME280;9707;49.158;8.632;2023-06-01T03:44:29;100554.41;;;24.97;30.68
19150;BME280;9707;49.158;8.632;2023-06-01T03:46:55;100558.28;;;24.95;30.86
19150;BME280;9707;49.158;8.632;2023-06-01T03:49:20;100562.03;;;24.94;31.01
19150;BME280;9707;49.158;8.632;2023-06-01T03:51:45;100558.56;;;24.92;30.85
19150;BME280;9707;49.158;8.632;2023-06-01T03:54:12;100560.59;;;24.90;30.85
19150;BME280;9707;49.158;8.632;2023-06-01T03:56:37;100560.59;;;24.90;30.79
19150;BME280;9707;49.158;8.632;2023-06-01T03:59:03;100562.63;;;24.88;30.78
19150;BME280;9707;49.158;8.632;2023-06-01T04:01:28;100567.34;;;24.86;30.91
19150;BME280;9707;49.158;8.632;2023-06-01T04:03:57;100562.88;;;24.85;31.11
19150;BME280;9707;49.158;8.632;2023-06-01T04:06:23;100567.50;;;24.84;30.80
19150;BME280;9707;49.158;8.632;2023-06-01T04:08:52;100572.06;;;24.84;31.08
19150;BME280;9707;49.158;8.632;2023-06-01T04:11:21;100570.38;;;24.83;30.83
19150;BME280;9707;49.158;8.632;2023-06-01T04:13:50;100565.06;;;24.81;30.87
19150;BME280;9707;49.158;8.632;2023-06-01T04:16:15;100573.38;;;24.80;31.01
19150;BME280;9707;49.158;8.632;2023-06-01T04:18:41;100569.81;;;24.79;31.00
19150;BME280;9707;49.158;8.632;2023-06-01T04:21:07;100575.38;;;24.78;30.96
19150;BME280;9707;49.158;8.632;2023-06-01T04:23:34;100572.81;;;24.76;31.08
19150;BME280;9707;49.158;8.632;2023-06-01T04:25:59;100578.25;;;24.76;31.07
19150;BME280;9707;49.158;8.632;2023-06-01T04:28:28;100576.53;;;24.75;31.30
19150;BME280;9707;49.158;8.632;2023-06-01T04:30:55;100576.69;;;24.74;31.36
19150;BME280;9707;49.158;8.632;2023-06-01T04:33:20;100584.84;;;24.74;31.48
19150;BME280;9707;49.158;8.632;2023-06-01T04:35:48;100578.69;;;24.72;31.31
19150;BME280;9707;49.158;8.632;2023-06-01T04:38:13;100588.72;;;24.71;31.32
19150;BME280;9707;49.158;8.632;2023-06-01T04:40:38;100590.56;;;24.71;31.19
19150;BME280;9707;49.158;8.632;2023-06-01T04:43:04;100584.41;;;24.69;31.57
19150;BME280;9707;49.158;8.632;2023-06-01T04:45:29;100586.13;;;24.70;31.90
19150;BME280;9707;49.158;8.632;2023-06-01T04:47:56;100588.88;;;24.70;31.59
19150;BME280;9707;49.158;8.632;2023-06-01T04:50:23;100588.03;;;24.69;31.55
19150;BME280;9707;49.158;8.632;2023-06-01T04:52:48;100589.88;;;24.69;31.83
19150;BME280;9707;49.158;8.632;2023-06-01T04:55:15;100595.31;;;24.69;31.79
19150;BME280;9707;49.158;8.632;2023-06-01T04:57:42;100595.31;;;24.69;31.92
19150;BME280;9707;49.158;8.632;2023-06-01T05:00:11;100595.31;;;24.69;31.79
19150;BME280;9707;49.158;8.632;2023-06-01T05:02:41;100597.16;;;24.68;32.05
19150;BME280;9707;49.158;8.632;2023-06-01T05:05:08;100594.44;;;24.68;32.02
19150;BME280;9707;49.158;8.632;2023-06-01T05:07:35;100597.34;;;24.67;31.98
19150;BME280;9707;49.158;8.632;2023-06-01T05:10:01;100599.06;;;24.68;31.97
19150;BME280;9707;49.158;8.632;2023-06-01T05:12:31;100598.03;;;24.69;32.09
19150;BME280;9707;49.158;8.632;2023-06-01T05:14:56;100603.50;;;24.69;31.88
19150;BME280;9707;49.158;8.632;2023-06-01T05:17:21;100608.81;;;24.70;31.93
19150;BME280;9707;49.158;8.632;2023-06-01T05:19:46;100603.34;;;24.70;31.90
19150;BME280;9707;49.158;8.632;2023-06-01T05:22:12;100607.09;;;24.69;31.95
19150;BME280;9707;49.158;8.632;2023-06-01T05:24:37;100607.09;;;24.69;32.62
19150;BME280;9707;49.158;8.632;2023-06-01T05:27:03;100606.91;;;24.71;32.57
19150;BME280;9707;49.158;8.632;2023-06-01T05:29:28;100616.66;;;24.73;32.81
19150;BME280;9707;49.158;8.632;2023-06-01T05:31:53;100604.63;;;24.76;32.51
19150;BME280;9707;49.158;8.632;2023-06-01T05:34:19;100603.66;;;24.77;32.65
19150;BME280;9707;49.158;8.632;2023-06-01T05:36:44;100600.75;;;24.78;32.83
19150;BME280;9707;49.158;8.632;2023-06-01T05:39:10;100597.88;;;24.80;32.62
19150;BME280;9707;49.158;8.632;2023-06-01T05:41:36;100605.94;;;24.81;32.58
19150;BME280;9707;49.158;8.632;2023-06-01T05:44:01;100596.75;;;24.82;32.57
19150;BME280;9707;49.158;8.632;2023-06-01T05:46:26;100602.94;;;24.84;32.45
19150;BME280;9707;49.158;8.632;2023-06-01T05:48:52;100598.19;;;24.86;32.62
19150;BME280;9707;49.158;8.632;2023-06-01T05:51:17;100601.91;;;24.85;32.37
19150;BME280;9707;49.158;8.632;2023-06-01T05:53:42;100593.59;;;24.87;32.40
19150;BME280;9707;49.158;8.632;2023-06-01T05:56:08;100593.44;;;24.88;32.49
19150;BME280;9707;49.158;8.632;2023-06-01T05:58:33;100595.16;;;24.89;32.93
19150;BME280;9707;49.158;8.632;2023-06-01T06:00:58;100593.28;;;24.90;32.63
19150;BME280;9707;49.158;8.632;2023-06-01T06:03:24;100593.00;;;24.93;32.99
19150;BME280;9707;49.158;8.632;2023-06-01T06:05:49;100598.47;;;24.93;32.86
19150;BME280;9707;49.158;8.632;2023-06-01T06:08:14;100596.44;;;24.95;32.71
19150;BME280;9707;49.158;8.632;2023-06-01T06:10:40;100601.88;;;24.95;32.56
19150;BME280;9707;49.158;8.632;2023-06-01T06:13:06;100596.31;;;24.96;32.04
19150;BME280;9707;49.158;8.632;2023-06-01T06:15:31;100597.16;;;24.97;31.87
19150;BME280;9707;49.158;8.632;2023-06-01T06:17:57;100592.44;;;24.99;32.10
19150;BME280;9707;49.158;8.632;2023-06-01T06:20:22;100598.56;;;25.01;31.72
19150;BME280;9707;49.158;8.632;2023-06-01T06:22:51;100595.84;;;25.01;32.37
19150;BME280;9707;49.158;8.632;2023-06-01T06:25:16;100589.25;;;25.03;31.53
19150;BME280;9707;49.158;8.632;2023-06-01T06:27:42;100594.69;;;25.03;31.71
19150;BME280;9707;49.158;8.632;2023-06-01T06:30:07;100595.44;;;25.05;31.56
19150;BME280;9707;49.158;8.632;2023-06-01T06:32:33;100593.56;;;25.06;31.55
19150;BME280;9707;49.158;8.632;2023-06-01T06:34:59;100595.25;;;25.07;31.55
19150;BME280;9707;49.158;8.632;2023-06-01T06:37:25;100589.81;;;25.07;31.35
19150;BME280;9707;49.158;8.632;2023-06-01T06:39:50;100597.84;;;25.08;31.31
19150;BME280;9707;49.158;8.632;2023-06-01T06:42:16;100596.13;;;25.07;31.38
19150;BME280;9707;49.158;8.632;2023-06-01T06:44:41;100597.72;;;25.10;31.64
19150;BME280;9707;49.158;8.632;2023-06-01T06:47:06;100602.16;;;25.11;31.50
19150;BME280;9707;49.158;8.632;2023-06-01T06:49:31;100598.41;;;25.12;31.39
19150;BME280;9707;49.158;8.632;2023-06-01T06:51:57;100600.16;;;25.13;31.14
19150;BME280;9707;49.158;8.632;2023-06-01T06:54:22;100596.41;;;25.14;31.19
19150;BME280;9707;49.158;8.632;2023-06-01T06:56:47;100595.25;;;25.16;31.72
19150;BME280;9707;49.158;8.632;2023-06-01T06:59:13;100597.84;;;25.18;31.75
19150;BME280;9707;49.158;8.632;2023-06-01T07:01:39;100594.09;;;25.19;31.78
19150;BME280;9707;49.158;8.632;2023-06-01T07:04:06;100595.81;;;25.20;31.93
19150;BME280;9707;49.158;8.632;2023-06-01T07:06:31;100605.56;;;25.22;31.80
19150;BME280;9707;49.158;8.632;2023-06-01T07:08:58;100595.38;;;25.24;31.81
19150;BME280;9707;49.158;8.632;2023-06-01T07:11:23;100595.25;;;25.26;31.94
19150;BME280;9707;49.158;8.632;2023-06-01T07:13:49;100600.72;;;25.26;31.52
19150;BME280;9707;49.158;8.632;2023-06-01T07:16:14;100596.97;;;25.27;32.01
19150;BME280;9707;49.158;8.632;2023-06-01T07:18:39;100591.38;;;25.28;32.10
19150;BME280;9707;49.158;8.632;2023-06-01T07:21:05;100591.25;;;25.30;32.15
19150;BME280;9707;49.158;8.632;2023-06-01T07:23:30;100583.75;;;25.32;32.18
19150;BME280;9707;49.158;8.632;2023-06-01T07:25:56;100588.94;;;25.35;31.85
19150;BME280;9707;49.158;8.632;2023-06-01T07:28:21;100592.34;;;25.37;31.79
19150;BME280;9707;49.158;8.632;2023-06-01T07:30:52;100592.22;;;25.38;31.97
19150;BME280;9707;49.158;8.632;2023-06-01T07:33:17;100593.78;;;25.41;32.04
19150;BME280;9707;49.158;8.632;2023-06-01T07:35:43;100589.06;;;25.43;32.08
19150;BME280;9707;49.158;8.632;2023-06-01T07:38:08;100583.44;;;25.44;31.93
19150;BME280;9707;49.158;8.632;2023-06-01T07:40:34;100574.97;;;25.47;32.07
19150;BME280;9707;49.158;8.632;2023-06-01T07:42:59;100591.19;;;25.49;31.77
19150;BME280;9707;49.158;8.632;2023-06-01T07:45:25;100589.16;;;25.51;32.02
19150;BME280;9707;49.158;8.632;2023-06-01T07:47:50;100586.16;;;25.54;31.75
19150;BME280;9707;49.158;8.632;2023-06-01T07:50:16;100586.00;;;25.55;31.73
19150;BME280;9707;49.158;8.632;2023-06-01T07:52:42;100580.22;;;25.58;31.76
19150;BME280;9707;49.158;8.632;2023-06-01T07:55:07;100579.06;;;25.61;31.98
19150;BME280;9707;49.158;8.632;2023-06-01T07:57:35;100584.38;;;25.62;31.94
19150;BME280;9707;49.158;8.632;2023-06-01T08:00:01;100584.06;;;25.65;31.42
19150;BME280;9707;49.158;8.632;2023-06-01T08:02:26;100583.91;;;25.67;31.55
19150;BME280;9707;49.158;8.632;2023-06-01T08:04:51;100577.31;;;25.69;31.41
19150;BME280;9707;49.158;8.632;2023-06-01T08:07:17;100576.13;;;25.72;31.62
19150;BME280;9707;49.158;8.632;2023-06-01T08:09:43;100574.13;;;25.74;31.40
19150;BME280;9707;49.158;8.632;2023-06-01T08:12:09;100573.97;;;25.75;31.10
19150;BME280;9707;49.158;8.632;2023-06-01T08:14:36;100570.06;;;25.78;31.36
19150;BME280;9707;49.158;8.632;2023-06-01T08:17:03;100568.06;;;25.80;31.25
19150;BME280;9707;49.158;8.632;2023-06-01T08:19:28;100560.56;;;25.82;31.40
19150;BME280;9707;49.158;8.632;2023-06-01T08:21:56;100563.00;;;25.85;31.36
19150;BME280;9707;49.158;8.632;2023-06-01T08:24:22;100556.53;;;25.86;31.14
19150;BME280;9707;49.158;8.632;2023-06-01T08:26:48;100559.13;;;25.87;30.61
19150;BME280;9707;49.158;8.632;2023-06-01T08:29:13;100557.97;;;25.90;31.08
19150;BME280;9707;49.158;8.632;2023-06-01T08:31:38;100555.94;;;25.92;31.08
19150;BME280;9707;49.158;8.632;2023-06-01T08:34:04;100555.66;;;25.95;31.13
19150;BME280;9707;49.158;8.632;2023-06-01T08:36:29;100552.78;;;25.96;30.98
19150;BME280;9707;49.158;8.632;2023-06-01T08:38:54;100559.81;;;25.99;30.85
19150;BME280;9707;49.158;8.632;2023-06-01T08:41:34;100555.03;;;26.01;31.11
19150;BME280;9707;49.158;8.632;2023-06-01T08:44:04;100552.03;;;26.04;31.07
19150;BME280;9707;49.158;8.632;2023-06-01T08:46:32;100549.97;;;26.06;31.08
19150;BME280;9707;49.158;8.632;2023-06-01T08:48:58;100553.41;;;26.08;31.03
19150;BME280;9707;49.158;8.632;2023-06-01T08:51:25;100554.97;;;26.10;30.46
19150;BME280;9707;49.158;8.632;2023-06-01T08:53:52;100544.91;;;26.11;30.85
19150;BME280;9707;49.158;8.632;2023-06-01T08:56:18;100539.16;;;26.14;30.56
19150;BME280;9707;49.158;8.632;2023-06-01T08:58:44;100538.84;;;26.17;30.40
19150;BME280;9707;49.158;8.632;2023-06-01T09:01:13;100542.28;;;26.19;30.70
19150;BME280;9707;49.158;8.632;2023-06-01T09:03:40;100532.06;;;26.21;30.48
19150;BME280;9707;49.158;8.632;2023-06-01T09:06:06;100542.84;;;26.22;30.57
19150;BME280;9707;49.158;8.632;2023-06-01T09:08:31;100541.66;;;26.25;30.69
19150;BME280;9707;49.158;8.632;2023-06-01T09:10:56;100534.16;;;26.27;30.44
19150;BME280;9707;49.158;8.632;2023-06-01T09:13:33;100542.91;;;26.30;30.41
19150;BME280;9707;49.158;8.632;2023-06-01T09:15:59;100540.72;;;26.34;30.63
19150;BME280;9707;49.158;8.632;2023-06-01T09:18:24;100541.44;;;26.36;30.78
19150;BME280;9707;49.158;8.632;2023-06-01T09:20:50;100535.81;;;26.37;30.64
19150;BME280;9707;49.158;8.632;2023-06-01T09:23:27;100529.19;;;26.40;30.80
19150;BME280;9707;49.158;8.632;2023-06-01T09:28:56;100536.03;;;26.44;30.50
19150;BME280;9707;49.158;8.632;2023-06-01T09:31:45;100528.69;;;26.44;30.69
19150;BME280;9707;49.158;8.632;2023-06-01T09:34:13;100530.25;;;26.47;30.41
19150;BME280;9707;49.158;8.632;2023-06-01T09:36:43;100521.03;;;26.48;30.70
19150;BME280;9707;49.158;8.632;2023-06-01T09:39:11;100525.19;;;26.52;30.47
19150;BME280;9707;49.158;8.632;2023-06-01T09:42:03;100529.63;;;26.53;30.31
19150;BME280;9707;49.158;8.632;2023-06-01T09:44:30;100527.63;;;26.55;30.09
19150;BME280;9707;49.158;8.632;2023-06-01T09:47:04;100530.03;;;26.58;30.13
19150;BME280;9707;49.158;8.632;2023-06-01T09:49:32;100522.56;;;26.60;30.06
19150;BME280;9707;49.158;8.632;2023-06-01T09:54:31;100516.78;;;26.63;30.15
19150;BME280;9707;49.158;8.632;2023-06-01T09:56:57;100512.88;;;26.65;30.09
19150;BME280;9707;49.158;8.632;2023-06-01T09:59:24;100513.41;;;26.69;30.47
19150;BME280;9707;49.158;8.632;2023-06-01T10:01:52;100505.03;;;26.70;30.44
19150;BME280;9707;49.158;8.632;2023-06-01T10:04:39;100502.00;;;26.73;30.60
19150;BME280;9707;49.158;8.632;2023-06-01T10:07:05;100508.16;;;26.75;30.46
19150;BME280;9707;49.158;8.632;2023-06-01T10:09:31;100502.53;;;26.77;30.36
19150;BME280;9707;49.158;8.632;2023-06-01T10:11:56;100502.38;;;26.78;30.57
19150;BME280;9707;49.158;8.632;2023-06-01T10:14:24;100504.97;;;26.80;30.14
19150;BME280;9707;49.158;8.632;2023-06-01T10:16:51;100498.31;;;26.82;29.94
19150;BME280;9707;49.158;8.632;2023-06-01T10:19:18;100493.69;;;26.83;30.28
19150;BME280;9707;49.158;8.632;2023-06-01T10:21:44;100498.84;;;26.86;29.95
19150;BME280;9707;49.158;8.632;2023-06-01T10:24:14;100498.69;;;26.87;30.25
19150;BME280;9707;49.158;8.632;2023-06-01T10:27:01;100487.59;;;26.89;29.74
19150;BME280;9707;49.158;8.632;2023-06-01T10:29:30;100486.59;;;26.90;29.26
19150;BME280;9707;49.158;8.632;2023-06-01T10:31:56;100491.88;;;26.91;28.43
19150;BME280;9707;49.158;8.632;2023-06-01T10:34:43;100479.06;;;26.92;29.06
19150;BME280;9707;49.158;8.632;2023-06-01T10:37:15;100473.44;;;26.93;29.18
19150;BME280;9707;49.158;8.632;2023-06-01T10:39:41;100476.88;;;26.95;29.17
19150;BME280;9707;49.158;8.632;2023-06-01T10:44:50;100475.53;;;26.99;28.48
19150;BME280;9707;49.158;8.632;2023-06-01T10:52:34;100467.53;;;27.06;28.88
19150;BME280;9707;49.158;8.632;2023-06-01T10:57:35;100465.66;;;27.06;27.87
19150;BME280;9707;49.158;8.632;2023-06-01T11:00:11;100466.19;;;27.10;28.10
19150;BME280;9707;49.158;8.632;2023-06-01T11:02:47;100459.72;;;27.11;27.47
19150;BME280;9707;49.158;8.632;2023-06-01T11:08:01;100459.38;;;27.14;28.65
19150;BME280;9707;49.158;8.632;2023-06-01T11:13:28;100454.47;;;27.17;28.45
19150;BME280;9707;49.158;8.632;2023-06-01T11:21:20;100448.50;;;27.22;27.78
19150;BME280;9707;49.158;8.632;2023-06-01T11:23:47;100457.41;;;27.24;26.94
19150;BME280;9707;49.158;8.632;2023-06-01T11:26:14;100450.91;;;27.25;26.18
19150;BME280;9707;49.158;8.632;2023-06-01T11:28:41;100455.19;;;27.27;26.77
19150;BME280;9707;49.158;8.632;2023-06-01T11:31:09;100450.28;;;27.31;27.21
19150;BME280;9707;49.158;8.632;2023-06-01T11:33:38;100441.72;;;27.34;27.97
19150;BME280;9707;49.158;8.632;2023-06-01T11:36:03;100440.53;;;27.36;28.26
19150;BME280;9707;49.158;8.632;2023-06-01T11:38:34;100443.78;;;27.40;28.05
19150;BME280;9707;49.158;8.632;2023-06-01T11:41:01;100430.81;;;27.42;27.52
19150;BME280;9707;49.158;8.632;2023-06-01T11:43:27;100431.66;;;27.42;27.57
19150;BME280;9707;49.158;8.632;2023-06-01T11:46:03;100424.16;;;27.44;27.65
19150;BME280;9707;49.158;8.632;2023-06-01T11:48:29;100425.00;;;27.45;26.28
19150;BME280;9707;49.158;8.632;2023-06-01T11:50:55;100417.66;;;27.45;27.34
19150;BME280;9707;49.158;8.632;2023-06-01T11:53:21;100417.50;;;27.47;27.96
19150;BME280;9707;49.158;8.632;2023-06-01T11:55:54;100411.69;;;27.50;27.16
19150;BME280;9707;49.158;8.632;2023-06-01T11:58:29;100417.16;;;27.50;26.24
19150;BME280;9707;49.158;8.632;2023-06-01T12:00:56;100407.94;;;27.51;27.15
19150;BME280;9707;49.158;8.632;2023-06-01T12:03:22;100405.88;;;27.53;27.54
19150;BME280;9707;49.158;8.632;2023-06-01T12:05:51;100404.69;;;27.55;27.75
19150;BME280;9707;49.158;8.632;2023-06-01T12:08:21;100403.50;;;27.58;27.59
19150;BME280;9707;49.158;8.632;2023-06-01T12:10:48;100405.22;;;27.59;27.11
19150;BME280;9707;49.158;8.632;2023-06-01T12:13:15;100401.44;;;27.60;26.79
19150;BME280;9707;49.158;8.632;2023-06-01T12:15:40;100399.56;;;27.60;25.90
19150;BME280;9707;49.158;8.632;2023-06-01T12:18:06;100394.78;;;27.62;25.61
19150;BME280;9707;49.158;8.632;2023-06-01T12:20:40;100387.28;;;27.64;27.51
19150;BME280;9707;49.158;8.632;2023-06-01T12:25:34;100385.94;;;27.68;26.09
19150;BME280;9707;49.158;8.632;2023-06-01T12:28:06;100374.78;;;27.70;25.88
19150;BME280;9707;49.158;8.632;2023-06-01T12:30:32;100377.34;;;27.71;25.97
19150;BME280;9707;49.158;8.632;2023-06-01T12:32:58;100372.59;;;27.73;25.38
19150;BME280;9707;49.158;8.632;2023-06-01T12:35:23;100368.66;;;27.76;27.07
19150;BME280;9707;49.158;8.632;2023-06-01T12:38:08;100368.47;;;27.77;26.84
19150;BME280;9707;49.158;8.632;2023-06-01T12:40:35;100368.34;;;27.79;26.52
19150;BME280;9707;49.158;8.632;2023-06-01T12:43:00;100371.94;;;27.79;27.39
19150;BME280;9707;49.158;8.632;2023-06-01T12:45:34;100369.72;;;27.83;26.87
19150;BME280;9707;49.158;8.632;2023-06-01T12:48:01;100359.59;;;27.83;26.84
19150;BME280;9707;49.158;8.632;2023-06-01T12:50:26;100357.56;;;27.85;27.42
19150;BME280;9707;49.158;8.632;2023-06-01T12:52:51;100356.38;;;27.88;26.37
19150;BME280;9707;49.158;8.632;2023-06-01T12:55:17;100352.59;;;27.89;26.68
19150;BME280;9707;49.158;8.632;2023-06-01T12:57:43;100355.19;;;27.90;27.33
19150;BME280;9707;49.158;8.632;2023-06-01T13:00:09;100352.06;;;27.93;25.75
19150;BME280;9707;49.158;8.632;2023-06-01T13:02:34;100351.91;;;27.95;26.94
19150;BME280;9707;49.158;8.632;2023-06-01T13:05:00;100347.16;;;27.97;26.88
19150;BME280;9707;49.158;8.632;2023-06-01T13:07:25;100346.09;;;27.98;27.46
19150;BME280;9707;49.158;8.632;2023-06-01T13:09:50;100352.25;;;28.00;26.68
19150;BME280;9707;49.158;8.632;2023-06-01T13:12:16;100344.56;;;28.03;27.49
19150;BME280;9707;49.158;8.632;2023-06-01T13:14:42;100340.63;;;28.06;26.67
19150;BME280;9707;49.158;8.632;2023-06-01T13:17:07;100339.63;;;28.07;26.70
19150;BME280;9707;49.158;8.632;2023-06-01T13:19:33;100333.09;;;28.08;27.18
19150;BME280;9707;49.158;8.632;2023-06-01T13:21:58;100333.94;;;28.08;26.84
19150;BME280;9707;49.158;8.632;2023-06-01T13:24:23;100337.53;;;28.09;26.18
19150;BME280;9707;49.158;8.632;2023-06-01T13:26:50;100335.47;;;28.11;25.92
19150;BME280;9707;49.158;8.632;2023-06-01T13:29:15;100333.44;;;28.13;27.32
19150;BME280;9707;49.158;8.632;2023-06-01T13:31:41;100333.06;;;28.16;26.86
19150;BME280;9707;49.158;8.632;2023-06-01T13:34:06;100325.56;;;28.18;26.53
19150;BME280;9707;49.158;8.632;2023-06-01T13:36:32;100323.66;;;28.18;27.41
19150;BME280;9707;49.158;8.632;2023-06-01T13:38:58;100326.94;;;28.22;27.44
19150;BME280;9707;49.158;8.632;2023-06-01T13:41:23;100318.53;;;28.23;27.06